Time;durP1;ratioP1;P1;durP2;ratioP2;P2;SDS_P1;SDS_P2;PMS_P1;PMS_P2;Temp;Humidity;BMP_temperature;BMP_pressure;BME280_temperature;BME280_humidity;BME280_pressure;Samples;Min_cycle;Max_cycle;Signal;HPM_P1;HPM_P2
2023/05/17 00:01:46;;;;;;;;;;;9.70;99.90;;;;;;5089715;28;19939;-82
2023/05/17 00:04:11;;;;;;;;;;;9.70;99.90;;;;;;5070871;28;19924;-82
2023/05/17 00:06:37;;;;;;;;;;;9.70;99.90;;;;;;5070192;28;19931;-82
2023/05/17 00:09:03;;;;;;;;;;;9.70;99.90;;;;;;5041471;28;19924;-82
2023/05/17 00:11:28;;;;;;;;;;;9.60;99.90;;;;;;5062070;28;19924;-82
2023/05/17 00:13:54;;;;;;;;;;;9.60;99.90;;;;;;5067401;28;20354;-82
2023/05/17 00:16:19;;;;;;;;;;;9.50;99.90;;;;;;5049936;28;19924;-82
2023/05/17 00:18:45;;;;;;;;;;;9.50;99.90;;;;;;5073536;28;19940;-82
2023/05/17 00:21:11;;;;;;;;;;;9.50;99.90;;;;;;5060396;28;19991;-82
2023/05/17 00:23:36;;;;;;;;;;;9.50;99.90;;;;;;5047869;28;20312;-81
2023/05/17 00:26:02;;;;;;;;;;;9.60;99.90;;;;;;5074051;28;19985;-81
2023/05/17 00:28:28;;;;;;;;;;;9.50;99.90;;;;;;5073626;28;19936;-78
2023/05/17 00:30:53;;;;;;;;;;;9.50;99.90;;;;;;5056977;28;20319;-80
2023/05/17 00:33:19;;;;;;;;;;;9.50;99.90;;;;;;5109106;28;19929;-79
2023/05/17 00:35:44;;;;;;;;;;;9.40;99.90;;;;;;5057735;28;19936;-81
2023/05/17 00:38:10;;;;;;;;;;;9.40;99.90;;;;;;5060860;28;19925;-82
2023/05/17 00:40:35;;;;;;;;;;;9.30;99.90;;;;;;5090294;28;19947;-82
2023/05/17 00:43:01;;;;;;;;;;;9.30;99.90;;;;;;5067796;28;19929;-83
2023/05/17 00:45:27;;;;;;;;;;;9.30;99.90;;;;;;5043723;28;19932;-82
2023/05/17 00:47:52;;;;;;;;;;;9.20;99.90;;;;;;5069995;28;19924;-82
2023/05/17 00:50:18;;;;;;;;;;;9.20;99.90;;;;;;5060518;28;19924;-82
2023/05/17 00:52:44;;;;;;;;;;;9.20;99.90;;;;;;5071780;28;19932;-83
2023/05/17 00:55:10;;;;;;;;;;;9.10;99.90;;;;;;5091230;28;19939;-82
2023/05/17 00:57:35;;;;;;;;;;;9.10;99.90;;;;;;5105608;28;19928;-82
2023/05/17 01:00:01;;;;;;;;;;;9.00;99.90;;;;;;5071374;28;19928;-82
2023/05/17 01:02:27;;;;;;;;;;;9.00;99.90;;;;;;5089751;28;19945;-81
2023/05/17 01:04:53;;;;;;;;;;;9.00;99.90;;;;;;5073375;28;19924;-82
2023/05/17 01:07:18;;;;;;;;;;;8.90;99.90;;;;;;5054433;28;20053;-82
2023/05/17 01:09:44;;;;;;;;;;;8.90;99.90;;;;;;5087894;28;20429;-82
2023/05/17 01:12:17;;;;;;;;;;;8.80;99.90;;;;;;5043208;28;19988;-82
2023/05/17 01:14:51;;;;;;;;;;;8.70;99.90;;;;;;5060741;28;19925;-82
2023/05/17 01:17:42;;;;;;;;;;;8.70;99.90;;;;;;5060607;28;19928;-82
2023/05/17 01:20:13;;;;;;;;;;;8.60;99.90;;;;;;5074945;28;19932;-82
2023/05/17 01:22:45;;;;;;;;;;;8.50;99.90;;;;;;5060238;28;19931;-82
2023/05/17 01:25:28;;;;;;;;;;;8.50;99.90;;;;;;5061070;28;19982;-82
2023/05/17 01:27:56;;;;;;;;;;;8.40;99.90;;;;;;5061631;28;19932;-82
2023/05/17 01:30:24;;;;;;;;;;;8.40;99.90;;;;;;5059249;28;19939;-83
2023/05/17 01:32:51;;;;;;;;;;;8.30;99.90;;;;;;5061758;28;19928;-83
2023/05/17 01:35:17;;;;;;;;;;;8.30;99.90;;;;;;5076882;28;19963;-83
2023/05/17 01:37:42;;;;;;;;;;;8.20;99.90;;;;;;5061698;28;19935;-83
2023/05/17 01:40:09;;;;;;;;;;;8.10;99.90;;;;;;5038974;28;19928;-83
2023/05/17 01:42:38;;;;;;;;;;;8.10;99.90;;;;;;5054277;28;20440;-83
2023/05/17 01:45:07;;;;;;;;;;;8.00;99.90;;;;;;5055104;28;20027;-82
2023/05/17 01:47:38;;;;;;;;;;;7.90;99.90;;;;;;5084564;28;20380;-82
2023/05/17 01:50:05;;;;;;;;;;;7.90;99.90;;;;;;5060794;28;19932;-82
2023/05/17 01:52:34;;;;;;;;;;;7.80;99.90;;;;;;5074040;28;19963;-82
2023/05/17 01:54:59;;;;;;;;;;;7.80;99.90;;;;;;5062503;28;19924;-82
2023/05/17 01:57:28;;;;;;;;;;;7.70;99.90;;;;;;5092003;28;19939;-82
2023/05/17 01:59:54;;;;;;;;;;;7.70;99.90;;;;;;5090135;28;19968;-82
2023/05/17 02:02:21;;;;;;;;;;;7.60;99.90;;;;;;5044582;28;19930;-82
2023/05/17 02:04:47;;;;;;;;;;;7.60;99.90;;;;;;5046176;28;19924;-82
2023/05/17 02:07:12;;;;;;;;;;;7.60;99.90;;;;;;5063345;28;19932;-82
2023/05/17 02:09:38;;;;;;;;;;;7.60;99.90;;;;;;5060562;28;19958;-81
2023/05/17 02:12:04;;;;;;;;;;;7.60;99.90;;;;;;5107248;28;19943;-82
2023/05/17 02:14:29;;;;;;;;;;;7.60;99.90;;;;;;5091245;28;19985;-82
2023/05/17 02:16:55;;;;;;;;;;;7.60;99.90;;;;;;5062561;28;19924;-82
2023/05/17 02:19:21;;;;;;;;;;;7.60;99.90;;;;;;5080831;28;19931;-81
2023/05/17 02:21:46;;;;;;;;;;;7.60;99.90;;;;;;5051410;28;19928;-81
2023/05/17 02:24:12;;;;;;;;;;;7.60;99.90;;;;;;5097178;28;19928;-82
2023/05/17 02:26:41;;;;;;;;;;;7.60;99.90;;;;;;5083901;28;19924;-82
2023/05/17 02:29:07;;;;;;;;;;;7.60;99.90;;;;;;5070118;28;19932;-82
2023/05/17 02:31:32;;;;;;;;;;;7.70;99.90;;;;;;5046521;28;19939;-82
2023/05/17 02:33:58;;;;;;;;;;;7.70;99.90;;;;;;5076538;28;19931;-82
2023/05/17 02:36:24;;;;;;;;;;;7.70;99.90;;;;;;5046619;28;19928;-82
2023/05/17 02:38:50;;;;;;;;;;;7.80;99.90;;;;;;5078948;28;19938;-82
2023/05/17 02:41:15;;;;;;;;;;;7.80;99.90;;;;;;5077292;28;19979;-82
2023/05/17 02:43:41;;;;;;;;;;;7.80;99.90;;;;;;5091198;28;19949;-83
2023/05/17 02:46:06;;;;;;;;;;;7.80;99.90;;;;;;5045228;28;19943;-82
2023/05/17 02:48:32;;;;;;;;;;;7.80;99.90;;;;;;5056025;28;19931;-82
2023/05/17 02:50:58;;;;;;;;;;;7.80;99.90;;;;;;5078048;28;19924;-83
2023/05/17 02:53:23;;;;;;;;;;;7.70;99.90;;;;;;5060574;28;19931;-82
2023/05/17 02:55:49;;;;;;;;;;;7.60;99.90;;;;;;5072931;28;19932;-82
2023/05/17 02:58:15;;;;;;;;;;;7.60;99.90;;;;;;5058380;28;19924;-82
2023/05/17 03:00:43;;;;;;;;;;;7.60;99.90;;;;;;5055564;28;19966;-82
2023/05/17 03:03:09;;;;;;;;;;;7.60;99.90;;;;;;5067574;28;19927;-82
2023/05/17 03:05:35;;;;;;;;;;;7.50;99.90;;;;;;5058788;28;19924;-82
2023/05/17 03:08:00;;;;;;;;;;;7.50;99.90;;;;;;5093257;28;19963;-82
2023/05/17 03:10:26;;;;;;;;;;;7.50;99.90;;;;;;5059519;28;20660;-82
2023/05/17 03:12:51;;;;;;;;;;;7.50;99.90;;;;;;5043737;28;19931;-82
2023/05/17 03:15:17;;;;;;;;;;;7.50;99.90;;;;;;5078524;28;19932;-82
2023/05/17 03:17:43;;;;;;;;;;;7.50;99.90;;;;;;5091551;28;19979;-82
2023/05/17 03:20:08;;;;;;;;;;;7.40;99.90;;;;;;5078137;28;20049;-82
2023/05/17 03:22:34;;;;;;;;;;;7.40;99.90;;;;;;5077567;28;19928;-82
2023/05/17 03:25:00;;;;;;;;;;;7.40;99.90;;;;;;5044824;28;20451;-82
2023/05/17 03:27:25;;;;;;;;;;;7.30;99.90;;;;;;5091724;28;19959;-82
2023/05/17 03:29:51;;;;;;;;;;;7.30;99.90;;;;;;5060867;28;19932;-82
2023/05/17 03:32:16;;;;;;;;;;;7.20;99.90;;;;;;5080164;28;19924;-81
2023/05/17 03:34:42;;;;;;;;;;;7.20;99.90;;;;;;5076438;28;20013;-82
2023/05/17 03:37:07;;;;;;;;;;;7.10;99.90;;;;;;5058077;28;19924;-82
2023/05/17 03:39:33;;;;;;;;;;;7.00;99.90;;;;;;5077148;28;19925;-82
2023/05/17 03:41:59;;;;;;;;;;;7.00;99.90;;;;;;5066550;28;20015;-82
2023/05/17 03:44:24;;;;;;;;;;;7.00;99.90;;;;;;5069677;28;20014;-82
2023/05/17 03:46:50;;;;;;;;;;;6.90;99.90;;;;;;5081723;28;19998;-82
2023/05/17 03:49:16;;;;;;;;;;;6.90;99.90;;;;;;5051067;28;19923;-82
2023/05/17 03:51:41;;;;;;;;;;;6.90;99.90;;;;;;5064048;28;20031;-82
2023/05/17 03:54:07;;;;;;;;;;;6.80;99.90;;;;;;5051126;28;20292;-81
2023/05/17 03:56:32;;;;;;;;;;;6.90;99.90;;;;;;5078580;28;20445;-82
2023/05/17 03:58:58;;;;;;;;;;;6.80;99.90;;;;;;5062924;28;19924;-82
2023/05/17 04:01:23;;;;;;;;;;;6.90;99.90;;;;;;5061726;28;19932;-82
2023/05/17 04:03:49;;;;;;;;;;;6.80;99.90;;;;;;5075806;28;19932;-82
2023/05/17 04:06:15;;;;;;;;;;;6.80;99.90;;;;;;5053552;28;19931;-82
2023/05/17 04:08:41;;;;;;;;;;;6.80;99.90;;;;;;5080582;28;19999;-82
2023/05/17 04:11:11;;;;;;;;;;;6.80;99.90;;;;;;5051447;28;19925;-82
2023/05/17 04:13:37;;;;;;;;;;;6.80;99.90;;;;;;5063730;28;19928;-82
2023/05/17 04:16:03;;;;;;;;;;;6.90;99.90;;;;;;5057312;28;19931;-82
2023/05/17 04:18:28;;;;;;;;;;;6.90;99.90;;;;;;5090177;28;19938;-81
2023/05/17 04:20:54;;;;;;;;;;;6.90;99.90;;;;;;5064488;28;19990;-82
2023/05/17 04:23:20;;;;;;;;;;;6.90;99.90;;;;;;5063713;28;19924;-82
2023/05/17 04:25:46;;;;;;;;;;;6.90;99.90;;;;;;5061270;28;19924;-82
2023/05/17 04:28:11;;;;;;;;;;;6.90;99.90;;;;;;5053518;28;19928;-81
2023/05/17 04:30:45;;;;;;;;;;;7.00;99.90;;;;;;5067438;28;19990;-82
2023/05/17 04:33:10;;;;;;;;;;;7.20;99.90;;;;;;5063271;28;19924;-82
2023/05/17 04:35:37;;;;;;;;;;;7.40;99.90;;;;;;5080673;28;19938;-82
2023/05/17 04:38:02;;;;;;;;;;;7.50;99.90;;;;;;5053706;28;19946;-82
2023/05/17 04:40:28;;;;;;;;;;;7.60;99.90;;;;;;5046663;28;19924;-81
2023/05/17 04:42:54;;;;;;;;;;;7.70;99.90;;;;;;5043981;28;19935;-81
2023/05/17 04:45:19;;;;;;;;;;;7.80;99.90;;;;;;5061889;28;19928;-82
2023/05/17 04:47:45;;;;;;;;;;;8.10;99.90;;;;;;5089947;28;20367;-82
2023/05/17 04:50:11;;;;;;;;;;;8.20;99.90;;;;;;5051294;28;19963;-82
2023/05/17 04:52:37;;;;;;;;;;;8.20;99.90;;;;;;5080814;28;19924;-82
2023/05/17 04:55:04;;;;;;;;;;;8.30;99.90;;;;;;5079164;28;20049;-82
2023/05/17 04:57:29;;;;;;;;;;;8.40;99.90;;;;;;5080781;28;20402;-82
2023/05/17 04:59:55;;;;;;;;;;;8.50;99.90;;;;;;5080155;28;19978;-82
2023/05/17 05:02:20;;;;;;;;;;;8.60;99.90;;;;;;5050868;28;19966;-82
2023/05/17 05:04:46;;;;;;;;;;;8.70;99.90;;;;;;5091047;28;19991;-82
2023/05/17 05:07:11;;;;;;;;;;;8.90;99.90;;;;;;5067373;28;19967;-82
2023/05/17 05:09:37;;;;;;;;;;;9.20;99.90;;;;;;5047183;28;19924;-82
2023/05/17 05:12:03;;;;;;;;;;;9.40;99.90;;;;;;5084807;28;19924;-82
2023/05/17 05:14:28;;;;;;;;;;;9.50;99.90;;;;;;5065150;28;19924;-82
2023/05/17 05:16:54;;;;;;;;;;;9.40;99.90;;;;;;5080788;28;19928;-81
2023/05/17 05:19:20;;;;;;;;;;;9.30;99.90;;;;;;5060318;28;20535;-82
2023/05/17 05:21:46;;;;;;;;;;;9.30;99.90;;;;;;5058323;28;19940;-82
2023/05/17 05:24:11;;;;;;;;;;;9.30;99.90;;;;;;5046021;28;19982;-81
2023/05/17 05:26:37;;;;;;;;;;;9.30;99.90;;;;;;5062928;28;19931;-82
2023/05/17 05:29:02;;;;;;;;;;;9.20;99.90;;;;;;5064370;28;19970;-81
2023/05/17 05:31:29;;;;;;;;;;;9.20;99.90;;;;;;5059509;28;19983;-82
2023/05/17 05:33:54;;;;;;;;;;;9.40;99.90;;;;;;5056873;28;19928;-82
2023/05/17 05:36:20;;;;;;;;;;;9.40;99.90;;;;;;5075356;28;19931;-81
2023/05/17 05:38:46;;;;;;;;;;;9.40;99.90;;;;;;5073568;28;19928;-82
2023/05/17 05:41:11;;;;;;;;;;;9.50;99.90;;;;;;5055172;28;19924;-82
2023/05/17 05:43:37;;;;;;;;;;;9.60;99.90;;;;;;5045555;28;19928;-81
2023/05/17 05:46:03;;;;;;;;;;;9.70;99.90;;;;;;5040030;28;19928;-82
2023/05/17 05:48:28;;;;;;;;;;;9.80;99.90;;;;;;5070824;28;19924;-81
2023/05/17 05:50:54;;;;;;;;;;;9.80;99.90;;;;;;5039220;28;19953;-82
2023/05/17 05:53:19;;;;;;;;;;;9.90;99.90;;;;;;5058414;28;19924;-82
2023/05/17 05:55:45;;;;;;;;;;;10.00;99.90;;;;;;5072754;28;20363;-82
2023/05/17 05:58:11;;;;;;;;;;;10.00;99.90;;;;;;5074671;28;19924;-82
2023/05/17 06:00:36;;;;;;;;;;;10.10;99.90;;;;;;5040121;28;20009;-82
2023/05/17 06:03:02;;;;;;;;;;;10.30;99.90;;;;;;5073491;28;20007;-82
2023/05/17 06:05:27;;;;;;;;;;;10.50;99.90;;;;;;5089663;28;19930;-82
2023/05/17 06:07:54;;;;;;;;;;;10.70;99.90;;;;;;5041174;28;19924;-81
2023/05/17 06:10:20;;;;;;;;;;;10.80;99.90;;;;;;5090321;28;19928;-82
2023/05/17 06:12:45;;;;;;;;;;;11.00;99.90;;;;;;5040892;28;19939;-84
2023/05/17 06:15:11;;;;;;;;;;;11.20;99.90;;;;;;5057147;28;19932;-83
2023/05/17 06:17:36;;;;;;;;;;;11.50;99.90;;;;;;5064664;28;19925;-82
2023/05/17 06:20:02;;;;;;;;;;;11.80;99.90;;;;;;5095957;28;20325;-82
2023/05/17 06:22:28;;;;;;;;;;;12.10;99.90;;;;;;5029566;28;19924;-82
2023/05/17 06:24:53;;;;;;;;;;;12.60;99.90;;;;;;5069155;28;19928;-82
2023/05/17 06:27:19;;;;;;;;;;;13.20;99.90;;;;;;5069647;28;19929;-82
2023/05/17 06:29:44;;;;;;;;;;;13.30;99.90;;;;;;5070936;28;19967;-82
2023/05/17 06:32:10;;;;;;;;;;;13.20;99.90;;;;;;5050147;28;19928;-82
2023/05/17 06:34:36;;;;;;;;;;;13.00;99.90;;;;;;5077550;28;19935;-81
2023/05/17 06:37:01;;;;;;;;;;;12.70;99.90;;;;;;5077598;28;19939;-82
2023/05/17 06:39:27;;;;;;;;;;;12.40;99.90;;;;;;5090441;28;19928;-82
2023/05/17 06:41:53;;;;;;;;;;;12.20;99.90;;;;;;5083288;28;19939;-82
2023/05/17 06:44:19;;;;;;;;;;;12.10;99.90;;;;;;5064849;28;19936;-82
2023/05/17 06:46:44;;;;;;;;;;;12.20;99.90;;;;;;5058515;28;19928;-84
2023/05/17 06:49:10;;;;;;;;;;;12.30;99.90;;;;;;5060937;28;19984;-81
2023/05/17 06:51:35;;;;;;;;;;;12.20;99.90;;;;;;5067174;28;19931;-81
2023/05/17 06:54:01;;;;;;;;;;;12.10;99.90;;;;;;5045548;28;19931;-82
2023/05/17 06:56:27;;;;;;;;;;;12.10;99.90;;;;;;5076876;28;20430;-82
2023/05/17 06:58:52;;;;;;;;;;;12.00;99.90;;;;;;5044894;28;20040;-81
2023/05/17 07:01:19;;;;;;;;;;;12.00;99.90;;;;;;5074152;28;19931;-82
2023/05/17 07:03:44;;;;;;;;;;;11.90;99.90;;;;;;5073791;28;20353;-82
2023/05/17 07:06:10;;;;;;;;;;;12.10;99.90;;;;;;5062430;28;19936;-81
2023/05/17 07:08:36;;;;;;;;;;;12.50;99.90;;;;;;5062905;28;20433;-81
2023/05/17 07:11:02;;;;;;;;;;;12.60;97.20;;;;;;5104930;28;19934;-82
2023/05/17 07:13:27;;;;;;;;;;;12.80;98.10;;;;;;5060839;28;19924;-81
2023/05/17 07:15:53;;;;;;;;;;;12.80;99.90;;;;;;5071217;28;19989;-77
2023/05/17 07:18:18;;;;;;;;;;;12.90;99.90;;;;;;5101648;28;20323;-78
2023/05/17 07:20:45;;;;;;;;;;;13.00;98.30;;;;;;5080672;28;19971;-78
2023/05/17 07:23:10;;;;;;;;;;;13.10;94.40;;;;;;5044090;28;19979;-76
2023/05/17 07:25:37;;;;;;;;;;;13.10;98.10;;;;;;5077302;28;19935;-77
2023/05/17 07:28:03;;;;;;;;;;;13.10;93.40;;;;;;5091592;28;19924;-76
2023/05/17 07:30:29;;;;;;;;;;;13.50;92.90;;;;;;5074727;28;19946;-77
2023/05/17 07:32:55;;;;;;;;;;;14.20;95.90;;;;;;5094379;28;19928;-77
2023/05/17 07:35:20;;;;;;;;;;;14.70;89.10;;;;;;5094388;28;19932;-79
2023/05/17 07:37:46;;;;;;;;;;;15.10;87.50;;;;;;5074312;28;20513;-80
2023/05/17 07:40:11;;;;;;;;;;;15.40;78.50;;;;;;5073222;28;19927;-79
2023/05/17 07:42:37;;;;;;;;;;;15.30;77.70;;;;;;5060097;28;19928;-80
2023/05/17 07:45:03;;;;;;;;;;;14.90;80.30;;;;;;5076966;28;19931;-81
2023/05/17 07:47:29;;;;;;;;;;;14.50;81.70;;;;;;5107358;28;19925;-81
2023/05/17 07:49:55;;;;;;;;;;;14.20;82.60;;;;;;5093250;28;19977;-80
2023/05/17 07:52:20;;;;;;;;;;;13.70;84.00;;;;;;5074909;28;20307;-82
2023/05/17 07:54:46;;;;;;;;;;;13.30;80.30;;;;;;5091414;28;19924;-82
2023/05/17 07:57:11;;;;;;;;;;;13.00;84.70;;;;;;5074296;28;20454;-82
2023/05/17 07:59:37;;;;;;;;;;;12.80;84.80;;;;;;5076307;28;19984;-84
2023/05/17 08:02:03;;;;;;;;;;;12.60;84.10;;;;;;5076362;28;19928;-82
2023/05/17 08:04:28;;;;;;;;;;;12.50;85.90;;;;;;5044586;28;19924;-87
2023/05/17 08:06:54;;;;;;;;;;;12.60;90.00;;;;;;5089897;28;19985;-87
2023/05/17 08:09:20;;;;;;;;;;;13.20;91.40;;;;;;5038977;28;20229;-86
2023/05/17 08:11:46;;;;;;;;;;;13.90;90.00;;;;;;5054211;28;20038;-84
2023/05/17 08:14:12;;;;;;;;;;;14.30;82.30;;;;;;5070626;28;20383;-88
2023/05/17 08:16:38;;;;;;;;;;;14.10;82.60;;;;;;5078266;28;19924;-88
2023/05/17 08:19:03;;;;;;;;;;;13.90;82.80;;;;;;5061616;28;19969;-87
2023/05/17 08:21:29;;;;;;;;;;;13.70;89.20;;;;;;5059143;28;19928;-88
2023/05/17 08:23:54;;;;;;;;;;;13.70;89.70;;;;;;5093934;28;19935;-87
2023/05/17 08:26:20;;;;;;;;;;;14.00;89.60;;;;;;5072621;28;19932;-86
2023/05/17 08:28:46;;;;;;;;;;;14.30;90.70;;;;;;5086365;28;20363;-86
2023/05/17 08:31:11;;;;;;;;;;;14.40;78.80;;;;;;5075547;28;19930;-86
2023/05/17 08:33:37;;;;;;;;;;;14.30;82.00;;;;;;5059977;28;19969;-88
2023/05/17 08:36:06;;;;;;;;;;;14.20;79.40;;;;;;5091447;28;20442;-86
2023/05/17 08:38:33;;;;;;;;;;;14.00;79.10;;;;;;5068046;28;19924;-88
2023/05/17 08:40:58;;;;;;;;;;;14.00;79.00;;;;;;5095764;28;19995;-88
2023/05/17 08:43:25;;;;;;;;;;;14.00;79.00;;;;;;5058760;28;19928;-89
2023/05/17 08:45:51;;;;;;;;;;;14.20;80.60;;;;;;5064707;28;19924;-91
2023/05/17 08:48:18;;;;;;;;;;;14.20;76.50;;;;;;5059200;28;19924;-91
2023/05/17 08:50:45;;;;;;;;;;;14.20;74.90;;;;;;5061522;28;20019;-87
2023/05/17 08:53:12;;;;;;;;;;;14.10;83.00;;;;;;5061370;28;19924;-87
2023/05/17 08:55:39;;;;;;;;;;;14.00;83.20;;;;;;5076130;28;19943;-85
2023/05/17 08:58:06;;;;;;;;;;;13.80;83.70;;;;;;5040358;28;19928;-84
2023/05/17 09:00:32;;;;;;;;;;;13.70;84.40;;;;;;5104903;28;19987;-86
2023/05/17 09:03:01;;;;;;;;;;;13.50;82.40;;;;;;5059655;28;19977;-86
2023/05/17 09:05:27;;;;;;;;;;;13.40;80.60;;;;;;5054962;28;19928;-85
2023/05/17 09:07:52;;;;;;;;;;;13.30;79.40;;;;;;5090011;28;20367;-84
2023/05/17 09:10:18;;;;;;;;;;;13.50;79.50;;;;;;5042847;28;19963;-84
2023/05/17 09:12:44;;;;;;;;;;;13.90;80.30;;;;;;5058369;28;20090;-82
2023/05/17 09:15:11;;;;;;;;;;;14.40;80.90;;;;;;5055509;28;20551;-84
2023/05/17 09:17:37;;;;;;;;;;;14.60;78.60;;;;;;5087092;28;19924;-84
2023/05/17 09:20:03;;;;;;;;;;;14.90;79.10;;;;;;5073373;28;19924;-82
2023/05/17 09:22:28;;;;;;;;;;;15.40;75.30;;;;;;5091809;28;19979;-83
2023/05/17 09:24:58;;;;;;;;;;;15.80;72.20;;;;;;5092354;28;19932;-84
2023/05/17 09:27:24;;;;;;;;;;;15.70;74.90;;;;;;5088997;28;20414;-81
2023/05/17 09:29:53;;;;;;;;;;;15.30;71.80;;;;;;5056934;28;19958;-84
2023/05/17 09:32:23;;;;;;;;;;;15.20;66.50;;;;;;5058844;28;19928;-84
2023/05/17 09:34:49;;;;;;;;;;;15.30;72.10;;;;;;5057823;28;20428;-88
2023/05/17 09:37:16;;;;;;;;;;;15.40;73.10;;;;;;5061826;28;20394;-84
2023/05/17 09:39:45;;;;;;;;;;;15.40;70.80;;;;;;5056771;28;19924;-85
2023/05/17 09:42:12;;;;;;;;;;;15.60;72.50;;;;;;5065295;28;19989;-81
2023/05/17 09:44:52;;;;;;;;;;;15.70;72.20;;;;;;5062055;28;19928;-79
2023/05/17 09:47:25;;;;;;;;;;;15.90;72.00;;;;;;5055424;28;20001;-80
2023/05/17 09:49:50;;;;;;;;;;;16.20;71.80;;;;;;5061154;28;19924;-79
2023/05/17 09:52:18;;;;;;;;;;;16.80;73.00;;;;;;5059951;28;19946;-79
2023/05/17 09:54:50;;;;;;;;;;;17.30;75.60;;;;;;5045293;28;19924;-79
2023/05/17 09:57:16;;;;;;;;;;;17.60;70.20;;;;;;5057998;28;19982;-79
2023/05/17 09:59:42;;;;;;;;;;;17.60;72.10;;;;;;5077199;28;19928;-79
2023/05/17 10:02:12;;;;;;;;;;;17.30;62.60;;;;;;5077126;28;20438;-79
2023/05/17 10:04:37;;;;;;;;;;;17.30;69.00;;;;;;5094540;28;19959;-80
2023/05/17 10:07:03;;;;;;;;;;;17.60;71.20;;;;;;5078339;28;19931;-81
2023/05/17 10:09:35;;;;;;;;;;;17.50;66.70;;;;;;5075293;28;19963;-80
2023/05/17 10:12:02;;;;;;;;;;;17.20;67.00;;;;;;5075230;28;19932;-82
2023/05/17 10:14:31;;;;;;;;;;;16.70;64.50;;;;;;5038579;28;19949;-81
2023/05/17 10:16:57;;;;;;;;;;;16.40;63.60;;;;;;5080311;28;19931;-81
2023/05/17 10:19:23;;;;;;;;;;;16.30;66.20;;;;;;5064847;28;20725;-81
2023/05/17 10:21:50;;;;;;;;;;;16.20;66.60;;;;;;5063406;28;19924;-79
2023/05/17 10:24:16;;;;;;;;;;;16.20;66.60;;;;;;5061669;28;19924;-79
2023/05/17 10:26:41;;;;;;;;;;;16.00;71.40;;;;;;5045812;28;19989;-79
2023/05/17 10:29:08;;;;;;;;;;;15.70;67.40;;;;;;5077856;28;19935;-79
2023/05/17 10:31:35;;;;;;;;;;;15.40;71.10;;;;;;5043009;28;19929;-79
2023/05/17 10:34:02;;;;;;;;;;;15.30;72.00;;;;;;5078057;28;20061;-78
2023/05/17 10:36:27;;;;;;;;;;;15.50;77.70;;;;;;5053999;28;19924;-80
2023/05/17 10:38:54;;;;;;;;;;;15.80;70.60;;;;;;5058648;28;19935;-82
2023/05/17 10:41:25;;;;;;;;;;;16.10;72.50;;;;;;5075972;28;19928;-82
2023/05/17 10:43:51;;;;;;;;;;;16.00;71.30;;;;;;5085385;28;19963;-79
2023/05/17 10:46:21;;;;;;;;;;;15.60;68.90;;;;;;5045224;28;19924;-80
2023/05/17 10:48:48;;;;;;;;;;;15.60;72.10;;;;;;5065980;28;19924;-75
2023/05/17 10:51:15;;;;;;;;;;;15.60;74.40;;;;;;5075233;28;19925;-80
2023/05/17 10:53:59;;;;;;;;;;;15.80;70.20;;;;;;5059920;28;19936;-70
2023/05/17 10:56:25;;;;;;;;;;;16.10;73.30;;;;;;5095115;28;19933;-69
2023/05/17 10:59:10;;;;;;;;;;;16.50;68.80;;;;;;5114771;28;20015;-70
2023/05/17 11:01:56;;;;;;;;;;;17.00;70.60;;;;;;5079553;28;19971;-70
2023/05/17 11:04:26;;;;;;;;;;;17.30;66.10;;;;;;5061657;28;19931;-69
2023/05/17 11:06:53;;;;;;;;;;;17.20;66.10;;;;;;5079139;28;20544;-69
2023/05/17 11:09:20;;;;;;;;;;;17.00;68.80;;;;;;5079663;28;19925;-69
2023/05/17 11:12:02;;;;;;;;;;;16.70;67.50;;;;;;5078800;28;19987;-69
2023/05/17 11:14:42;;;;;;;;;;;16.60;59.10;;;;;;5067461;28;20457;-69
2023/05/17 11:17:14;;;;;;;;;;;16.40;64.20;;;;;;5079775;28;19943;-69
2023/05/17 11:19:49;;;;;;;;;;;16.30;65.20;;;;;;5082602;28;19928;-69
2023/05/17 11:22:15;;;;;;;;;;;16.30;64.10;;;;;;5082907;28;19928;-69
2023/05/17 11:24:43;;;;;;;;;;;16.20;64.60;;;;;;5094564;28;20012;-69
2023/05/17 11:27:09;;;;;;;;;;;16.10;64.60;;;;;;5083405;28;19924;-75
2023/05/17 11:29:38;;;;;;;;;;;16.30;67.30;;;;;;5095659;28;19988;-76
2023/05/17 11:32:05;;;;;;;;;;;16.40;66.10;;;;;;5088889;28;20126;-77
2023/05/17 11:34:32;;;;;;;;;;;16.30;64.10;;;;;;5094498;28;19932;-76
2023/05/17 11:36:57;;;;;;;;;;;16.30;64.10;;;;;;5060052;28;20013;-76
2023/05/17 11:39:23;;;;;;;;;;;16.40;62.50;;;;;;5061280;28;19924;-76
2023/05/17 11:41:53;;;;;;;;;;;16.60;64.40;;;;;;5059793;28;20450;-76
2023/05/17 11:44:28;;;;;;;;;;;16.70;62.80;;;;;;5073776;28;20022;-76
2023/05/17 11:47:04;;;;;;;;;;;16.70;63.20;;;;;;5091266;28;19925;-82
2023/05/17 11:49:31;;;;;;;;;;;16.70;65.50;;;;;;5068740;28;19924;-80
2023/05/17 11:51:57;;;;;;;;;;;16.60;61.40;;;;;;5089525;28;19924;-76
2023/05/17 11:54:23;;;;;;;;;;;16.60;62.10;;;;;;5056023;28;19924;-77
2023/05/17 11:56:49;;;;;;;;;;;16.60;58.40;;;;;;5085578;28;20008;-82
2023/05/17 11:59:22;;;;;;;;;;;16.60;61.40;;;;;;5095648;28;19935;-81
2023/05/17 12:01:48;;;;;;;;;;;16.70;61.60;;;;;;5079897;28;19924;-79
2023/05/17 12:04:21;;;;;;;;;;;16.90;63.20;;;;;;5079005;28;19966;-80
2023/05/17 12:06:47;;;;;;;;;;;16.90;59.60;;;;;;5062835;28;19928;-79
2023/05/17 12:09:16;;;;;;;;;;;16.90;59.10;;;;;;5089244;28;19935;-80
2023/05/17 12:11:42;;;;;;;;;;;17.00;59.70;;;;;;5071945;28;19925;-81
2023/05/17 12:14:07;;;;;;;;;;;17.00;58.50;;;;;;5062131;28;20004;-77
2023/05/17 12:16:35;;;;;;;;;;;16.90;60.30;;;;;;5079099;28;20441;-79
2023/05/17 12:19:00;;;;;;;;;;;16.70;57.80;;;;;;5079049;28;19925;-78
2023/05/17 12:21:26;;;;;;;;;;;16.50;57.70;;;;;;5074566;28;20360;-81
2023/05/17 12:23:52;;;;;;;;;;;16.40;59.70;;;;;;5080064;28;19928;-77
2023/05/17 12:26:18;;;;;;;;;;;16.30;58.10;;;;;;5078326;28;19986;-77
2023/05/17 12:28:46;;;;;;;;;;;16.40;57.60;;;;;;5062422;28;20049;-78
2023/05/17 12:31:16;;;;;;;;;;;16.50;59.40;;;;;;5078014;28;19947;-80
2023/05/17 12:33:42;;;;;;;;;;;16.50;57.70;;;;;;5062580;28;20365;-80
2023/05/17 12:36:09;;;;;;;;;;;16.30;58.10;;;;;;5078858;28;19924;-81
2023/05/17 12:38:35;;;;;;;;;;;16.10;59.50;;;;;;5061416;28;19984;-79
2023/05/17 12:41:05;;;;;;;;;;;16.20;61.10;;;;;;5078961;28;19928;-80
2023/05/17 12:43:34;;;;;;;;;;;16.40;60.20;;;;;;5061114;28;19978;-81
2023/05/17 12:46:02;;;;;;;;;;;16.70;59.90;;;;;;5061680;28;19928;-79
2023/05/17 12:48:27;;;;;;;;;;;16.70;59.30;;;;;;5078289;28;19924;-81
2023/05/17 12:50:54;;;;;;;;;;;16.60;58.10;;;;;;5052009;28;19966;-80
2023/05/17 12:53:21;;;;;;;;;;;16.30;58.90;;;;;;5062208;28;20307;-82
2023/05/17 12:55:47;;;;;;;;;;;16.20;59.30;;;;;;5074417;28;19925;-82
2023/05/17 12:58:12;;;;;;;;;;;16.20;60.70;;;;;;5059779;28;19971;-82
2023/05/17 13:00:38;;;;;;;;;;;16.10;58.60;;;;;;5073620;28;19971;-82
2023/05/17 13:03:10;;;;;;;;;;;16.20;60.90;;;;;;5071644;28;19924;-82
2023/05/17 13:05:35;;;;;;;;;;;16.30;61.70;;;;;;5074068;28;20027;-82
2023/05/17 13:08:23;;;;;;;;;;;16.40;61.60;;;;;;5045036;28;20371;-82
2023/05/17 13:10:49;;;;;;;;;;;16.60;60.30;;;;;;5077955;28;19950;-83
2023/05/17 13:13:18;;;;;;;;;;;16.70;57.90;;;;;;5076530;28;19983;-78
2023/05/17 13:15:45;;;;;;;;;;;16.70;59.70;;;;;;5078496;28;19928;-81
2023/05/17 13:18:12;;;;;;;;;;;16.80;56.40;;;;;;5074280;28;20497;-81
2023/05/17 13:20:37;;;;;;;;;;;16.90;59.70;;;;;;5072432;28;19924;-80
2023/05/17 13:23:04;;;;;;;;;;;16.90;55.20;;;;;;5060927;28;19954;-81
2023/05/17 13:25:30;;;;;;;;;;;16.90;57.90;;;;;;5094317;28;19974;-79
2023/05/17 13:27:56;;;;;;;;;;;16.90;57.70;;;;;;5076081;28;20348;-78
2023/05/17 13:30:21;;;;;;;;;;;17.00;58.90;;;;;;5060345;28;19928;-79
2023/05/17 13:32:47;;;;;;;;;;;17.00;58.00;;;;;;5061521;28;19924;-78
2023/05/17 13:35:12;;;;;;;;;;;17.00;58.30;;;;;;5075975;28;19925;-81
2023/05/17 13:37:38;;;;;;;;;;;16.90;58.00;;;;;;5077662;28;19925;-82
2023/05/17 13:40:04;;;;;;;;;;;17.10;59.10;;;;;;5074364;28;19931;-81
2023/05/17 13:42:30;;;;;;;;;;;17.00;58.70;;;;;;5071328;28;19924;-83
2023/05/17 13:44:56;;;;;;;;;;;16.70;57.50;;;;;;5074672;28;19932;-80
2023/05/17 13:47:22;;;;;;;;;;;16.40;59.10;;;;;;5052006;28;20329;-80
2023/05/17 13:49:48;;;;;;;;;;;16.20;59.40;;;;;;5074847;28;19924;-84
2023/05/17 13:52:14;;;;;;;;;;;16.10;59.40;;;;;;5064367;28;19948;-82
2023/05/17 13:54:39;;;;;;;;;;;16.10;60.70;;;;;;5060415;28;19985;-82
2023/05/17 13:57:06;;;;;;;;;;;16.10;59.60;;;;;;5077096;28;20399;-82
2023/05/17 13:59:32;;;;;;;;;;;16.10;59.80;;;;;;5076781;28;19928;-81
2023/05/17 14:01:57;;;;;;;;;;;16.20;59.20;;;;;;5061506;28;20040;-81
2023/05/17 14:04:23;;;;;;;;;;;16.30;60.20;;;;;;5076588;28;19951;-82
2023/05/17 14:06:50;;;;;;;;;;;16.30;60.40;;;;;;5061372;28;19978;-83
2023/05/17 14:09:16;;;;;;;;;;;16.30;58.30;;;;;;5059235;28;20566;-80
2023/05/17 14:11:41;;;;;;;;;;;16.40;58.00;;;;;;5060451;28;19978;-80
2023/05/17 14:14:07;;;;;;;;;;;16.50;58.90;;;;;;5093846;28;19956;-81
2023/05/17 14:16:32;;;;;;;;;;;16.50;59.80;;;;;;5074116;28;19931;-81
2023/05/17 14:18:58;;;;;;;;;;;16.40;58.50;;;;;;5073694;28;19975;-82